sensor_id;sensor_type;location;lat;lon;timestamp;temperature;humidity
12303;DHT22;6214;48.012;7.862;2023-05-10T00:00:55;15.80;99.90
12303;DHT22;6214;48.012;7.862;2023-05-10T00:03:22;15.80;99.90
12303;DHT22;6214;48.012;7.862;2023-05-10T00:05:50;15.90;99.90
12303;DHT22;6214;48.012;7.862;2023-05-10T00:08:17;15.90;99.90
12303;DHT22;6214;48.012;7.862;2023-05-10T00:10:44;15.90;99.90
12303;DHT22;6214;48.012;7.862;2023-05-10T00:13:11;15.80;99.90
12303;DHT22;6214;48.012;7.862;2023-05-10T00:15:38;15.90;99.90
12303;DHT22;6214;48.012;7.862;2023-05-10T00:18:05;15.80;99.90
12303;DHT22;6214;48.012;7.862;2023-05-10T00:20:32;15.90;99.90
12303;DHT22;6214;48.012;7.862;2023-05-10T00:22:59;15.90;99.90
12303;DHT22;6214;48.012;7.862;2023-05-10T00:25:26;15.90;99.90
12303;DHT22;6214;48.012;7.862;2023-05-10T00:27:53;15.70;99.90
12303;DHT22;6214;48.012;7.862;2023-05-10T00:30:22;15.70;99.90
12303;DHT22;6214;48.012;7.862;2023-05-10T00:32:49;16.60;99.90
12303;DHT22;6214;48.012;7.862;2023-05-10T00:35:16;15.70;99.90
12303;DHT22;6214;48.012;7.862;2023-05-10T00:37:43;15.70;99.90
12303;DHT22;6214;48.012;7.862;2023-05-10T00:40:11;15.60;99.90
12303;DHT22;6214;48.012;7.862;2023-05-10T00:42:38;15.60;99.90
12303;DHT22;6214;48.012;7.862;2023-05-10T00:45:06;15.60;99.90
12303;DHT22;6214;48.012;7.862;2023-05-10T00:47:34;15.60;99.90
12303;DHT22;6214;48.012;7.862;2023-05-10T00:50:01;15.60;99.90
12303;DHT22;6214;48.012;7.862;2023-05-10T00:52:29;15.60;99.90
12303;DHT22;6214;48.012;7.862;2023-05-10T00:54:57;15.60;99.90
12303;DHT22;6214;48.012;7.862;2023-05-10T00:57:25;15.60;99.90
12303;DHT22;6214;48.012;7.862;2023-05-10T00:59:52;15.60;99.90
12303;DHT22;6214;48.012;7.862;2023-05-10T01:02:19;15.60;99.90
12303;DHT22;6214;48.012;7.862;2023-05-10T01:04:46;15.50;99.90
12303;DHT22;6214;48.012;7.862;2023-05-10T01:07:14;15.60;99.90
12303;DHT22;6214;48.012;7.862;2023-05-10T01:09:41;15.50;99.90
12303;DHT22;6214;48.012;7.862;2023-05-10T01:12:08;15.50;99.90
12303;DHT22;6214;48.012;7.862;2023-05-10T01:14:35;15.40;99.90
12303;DHT22;6214;48.012;7.862;2023-05-10T01:17:04;15.30;99.90
12303;DHT22;6214;48.012;7.862;2023-05-10T01:19:34;15.30;99.90
12303;DHT22;6214;48.012;7.862;2023-05-10T01:27:39;15.50;99.90
12303;DHT22;6214;48.012;7.862;2023-05-10T01:32:46;15.50;99.90
12303;DHT22;6214;48.012;7.862;2023-05-10T01:38:20;15.60;99.90
12303;DHT22;6214;48.012;7.862;2023-05-10T01:41:08;15.50;99.90
12303;DHT22;6214;48.012;7.862;2023-05-10T01:43:47;15.50;99.90
12303;DHT22;6214;48.012;7.862;2023-05-10T01:46:20;15.40;99.90
12303;DHT22;6214;48.012;7.862;2023-05-10T01:48:48;15.40;99.90
12303;DHT22;6214;48.012;7.862;2023-05-10T01:51:24;15.40;99.90
12303;DHT22;6214;48.012;7.862;2023-05-10T01:53:58;15.40;99.90
12303;DHT22;6214;48.012;7.862;2023-05-10T01:56:26;15.40;99.90
12303;DHT22;6214;48.012;7.862;2023-05-10T01:58:55;15.50;99.90
12303;DHT22;6214;48.012;7.862;2023-05-10T02:01:25;15.50;99.90
12303;DHT22;6214;48.012;7.862;2023-05-10T02:03:54;15.50;99.90
12303;DHT22;6214;48.012;7.862;2023-05-10T02:06:22;15.60;99.90
12303;DHT22;6214;48.012;7.862;2023-05-10T02:08:52;15.50;99.90
12303;DHT22;6214;48.012;7.862;2023-05-10T02:11:20;15.50;99.90
12303;DHT22;6214;48.012;7.862;2023-05-10T02:13:49;15.50;99.90
12303;DHT22;6214;48.012;7.862;2023-05-10T02:16:18;15.50;99.90
12303;DHT22;6214;48.012;7.862;2023-05-10T02:18:52;15.50;99.90
12303;DHT22;6214;48.012;7.862;2023-05-10T02:21:20;15.50;99.90
12303;DHT22;6214;48.012;7.862;2023-05-10T02:23:48;15.50;99.90
12303;DHT22;6214;48.012;7.862;2023-05-10T02:26:17;15.60;99.90
12303;DHT22;6214;48.012;7.862;2023-05-10T02:28:45;15.70;99.90
12303;DHT22;6214;48.012;7.862;2023-05-10T02:31:13;15.70;99.90
12303;DHT22;6214;48.012;7.862;2023-05-10T02:33:41;15.60;99.90
12303;DHT22;6214;48.012;7.862;2023-05-10T02:36:09;15.60;99.90
12303;DHT22;6214;48.012;7.862;2023-05-10T02:38:37;15.60;99.90
12303;DHT22;6214;48.012;7.862;2023-05-10T02:41:05;15.70;99.90
12303;DHT22;6214;48.012;7.862;2023-05-10T02:43:35;15.70;99.90
12303;DHT22;6214;48.012;7.862;2023-05-10T02:46:02;15.70;99.90
12303;DHT22;6214;48.012;7.862;2023-05-10T02:48:30;15.60;99.90
12303;DHT22;6214;48.012;7.862;2023-05-10T02:51:02;15.50;99.90
12303;DHT22;6214;48.012;7.862;2023-05-10T02:53:33;15.40;99.90
12303;DHT22;6214;48.012;7.862;2023-05-10T02:56:05;15.50;99.90
12303;DHT22;6214;48.012;7.862;2023-05-10T02:58:36;15.50;99.90
12303;DHT22;6214;48.012;7.862;2023-05-10T03:01:03;15.50;99.90
12303;DHT22;6214;48.012;7.862;2023-05-10T03:03:30;15.50;99.90
12303;DHT22;6214;48.012;7.862;2023-05-10T03:05:57;15.50;99.90
12303;DHT22;6214;48.012;7.862;2023-05-10T03:08:25;15.50;99.90
12303;DHT22;6214;48.012;7.862;2023-05-10T03:14:04;15.40;99.90
12303;DHT22;6214;48.012;7.862;2023-05-10T03:16:47;15.30;99.90
12303;DHT22;6214;48.012;7.862;2023-05-10T03:19:24;15.40;99.90
12303;DHT22;6214;48.012;7.862;2023-05-10T03:21:53;15.40;99.90
12303;DHT22;6214;48.012;7.862;2023-05-10T03:24:27;15.40;99.90
12303;DHT22;6214;48.012;7.862;2023-05-10T03:26:56;15.50;99.90
12303;DHT22;6214;48.012;7.862;2023-05-10T03:29:26;15.40;99.90
12303;DHT22;6214;48.012;7.862;2023-05-10T03:31:54;15.50;99.90
12303;DHT22;6214;48.012;7.862;2023-05-10T03:34:24;15.40;99.90
12303;DHT22;6214;48.012;7.862;2023-05-10T03:36:52;15.40;99.90
12303;DHT22;6214;48.012;7.862;2023-05-10T03:39:19;15.30;99.90
12303;DHT22;6214;48.012;7.862;2023-05-10T03:41:48;15.30;99.90
12303;DHT22;6214;48.012;7.862;2023-05-10T03:44:15;15.30;99.90
12303;DHT22;6214;48.012;7.862;2023-05-10T03:46:42;15.20;99.90
12303;DHT22;6214;48.012;7.862;2023-05-10T03:49:09;15.30;99.90
12303;DHT22;6214;48.012;7.862;2023-05-10T03:51:36;15.30;99.90
12303;DHT22;6214;48.012;7.862;2023-05-10T03:54:03;15.20;99.90
12303;DHT22;6214;48.012;7.862;2023-05-10T03:56:30;15.30;99.90
12303;DHT22;6214;48.012;7.862;2023-05-10T03:58:57;15.30;99.90
12303;DHT22;6214;48.012;7.862;2023-05-10T04:01:24;15.20;99.90
12303;DHT22;6214;48.012;7.862;2023-05-10T04:03:51;15.20;99.90
12303;DHT22;6214;48.012;7.862;2023-05-10T04:06:19;15.20;99.90
12303;DHT22;6214;48.012;7.862;2023-05-10T04:08:46;15.30;99.90
12303;DHT22;6214;48.012;7.862;2023-05-10T04:11:13;15.30;99.90
12303;DHT22;6214;48.012;7.862;2023-05-10T04:13:41;15.30;99.90
12303;DHT22;6214;48.012;7.862;2023-05-10T04:16:08;15.20;99.90
12303;DHT22;6214;48.012;7.862;2023-05-10T04:18:35;15.20;99.90
12303;DHT22;6214;48.012;7.862;2023-05-10T04:21:03;15.20;99.90
12303;DHT22;6214;48.012;7.862;2023-05-10T04:23:30;15.30;99.90
12303;DHT22;6214;48.012;7.862;2023-05-10T04:26:01;15.20;99.90
12303;DHT22;6214;48.012;7.862;2023-05-10T04:28:28;15.30;99.90
12303;DHT22;6214;48.012;7.862;2023-05-10T04:31:06;14.10;99.90
12303;DHT22;6214;48.012;7.862;2023-05-10T04:33:33;15.50;99.90
12303;DHT22;6214;48.012;7.862;2023-05-10T04:36:02;15.50;99.90
12303;DHT22;6214;48.012;7.862;2023-05-10T04:38:29;15.50;99.90
12303;DHT22;6214;48.012;7.862;2023-05-10T04:41:07;15.50;99.90
12303;DHT22;6214;48.012;7.862;2023-05-10T04:43:35;15.30;99.90
12303;DHT22;6214;48.012;7.862;2023-05-10T04:46:03;15.30;99.90
12303;DHT22;6214;48.012;7.862;2023-05-10T04:48:30;15.20;99.90
12303;DHT22;6214;48.012;7.862;2023-05-10T04:50:58;15.30;99.90
12303;DHT22;6214;48.012;7.862;2023-05-10T04:53:25;15.30;99.90
12303;DHT22;6214;48.012;7.862;2023-05-10T04:55:52;15.30;99.90
12303;DHT22;6214;48.012;7.862;2023-05-10T04:58:19;15.20;99.90
12303;DHT22;6214;48.012;7.862;2023-05-10T05:00:46;15.20;99.90
12303;DHT22;6214;48.012;7.862;2023-05-10T05:03:13;15.30;99.90
12303;DHT22;6214;48.012;7.862;2023-05-10T05:05:40;15.20;99.90
12303;DHT22;6214;48.012;7.862;2023-05-10T05:08:07;15.20;99.90
12303;DHT22;6214;48.012;7.862;2023-05-10T05:10:35;15.20;99.90
12303;DHT22;6214;48.012;7.862;2023-05-10T05:13:02;15.30;99.90
12303;DHT22;6214;48.012;7.862;2023-05-10T05:15:29;15.20;99.90
12303;DHT22;6214;48.012;7.862;2023-05-10T05:17:57;15.30;99.90
12303;DHT22;6214;48.012;7.862;2023-05-10T05:20:24;15.30;99.90
12303;DHT22;6214;48.012;7.862;2023-05-10T05:22:51;15.30;99.90
12303;DHT22;6214;48.012;7.862;2023-05-10T05:25:18;15.40;99.90
12303;DHT22;6214;48.012;7.862;2023-05-10T05:27:46;15.40;99.90
12303;DHT22;6214;48.012;7.862;2023-05-10T05:30:13;15.40;99.90
12303;DHT22;6214;48.012;7.862;2023-05-10T05:32:40;15.50;99.90
12303;DHT22;6214;48.012;7.862;2023-05-10T05:35:07;15.50;99.90
12303;DHT22;6214;48.012;7.862;2023-05-10T05:37:35;15.40;99.90
12303;DHT22;6214;48.012;7.862;2023-05-10T05:40:02;15.40;99.90
12303;DHT22;6214;48.012;7.862;2023-05-10T05:42:31;15.50;99.90
12303;DHT22;6214;48.012;7.862;2023-05-10T05:44:58;15.40;99.90
12303;DHT22;6214;48.012;7.862;2023-05-10T05:47:25;15.50;99.90
12303;DHT22;6214;48.012;7.862;2023-05-10T05:49:52;15.50;99.90
12303;DHT22;6214;48.012;7.862;2023-05-10T05:52:19;15.50;99.90
12303;DHT22;6214;48.012;7.862;2023-05-10T05:54:48;15.40;99.90
12303;DHT22;6214;48.012;7.862;2023-05-10T05:57:15;15.40;99.90
12303;DHT22;6214;48.012;7.862;2023-05-10T05:59:42;15.50;99.90
12303;DHT22;6214;48.012;7.862;2023-05-10T06:02:10;15.40;99.90
12303;DHT22;6214;48.012;7.862;2023-05-10T06:04:38;15.30;99.90
12303;DHT22;6214;48.012;7.862;2023-05-10T06:07:05;15.20;99.90
12303;DHT22;6214;48.012;7.862;2023-05-10T06:09:32;15.10;99.90
12303;DHT22;6214;48.012;7.862;2023-05-10T06:11:59;15.10;99.90
12303;DHT22;6214;48.012;7.862;2023-05-10T06:14:26;15.00;99.90
12303;DHT22;6214;48.012;7.862;2023-05-10T06:16:53;15.10;99.90
12303;DHT22;6214;48.012;7.862;2023-05-10T06:19:20;15.00;99.90
12303;DHT22;6214;48.012;7.862;2023-05-10T06:21:47;15.00;99.90
12303;DHT22;6214;48.012;7.862;2023-05-10T06:24:14;15.10;99.90
12303;DHT22;6214;48.012;7.862;2023-05-10T06:26:41;15.20;99.90
12303;DHT22;6214;48.012;7.862;2023-05-10T06:29:08;15.20;99.90
12303;DHT22;6214;48.012;7.862;2023-05-10T06:31:36;15.30;99.90
12303;DHT22;6214;48.012;7.862;2023-05-10T06:34:03;15.20;99.90
12303;DHT22;6214;48.012;7.862;2023-05-10T06:36:30;15.30;99.90
12303;DHT22;6214;48.012;7.862;2023-05-10T06:38:57;15.30;99.90
12303;DHT22;6214;48.012;7.862;2023-05-10T06:41:24;15.20;99.90
12303;DHT22;6214;48.012;7.862;2023-05-10T06:43:51;15.20;99.90
12303;DHT22;6214;48.012;7.862;2023-05-10T06:46:18;15.30;99.90
12303;DHT22;6214;48.012;7.862;2023-05-10T06:48:46;15.20;99.90
12303;DHT22;6214;48.012;7.862;2023-05-10T06:51:13;15.30;99.90
12303;DHT22;6214;48.012;7.862;2023-05-10T06:53:40;15.50;99.90
12303;DHT22;6214;48.012;7.862;2023-05-10T06:56:07;15.40;99.90
12303;DHT22;6214;48.012;7.862;2023-05-10T06:58:34;15.30;99.90
12303;DHT22;6214;48.012;7.862;2023-05-10T07:01:02;15.40;99.90
12303;DHT22;6214;48.012;7.862;2023-05-10T07:03:30;15.40;99.90
12303;DHT22;6214;48.012;7.862;2023-05-10T07:06:03;15.50;99.90
12303;DHT22;6214;48.012;7.862;2023-05-10T07:08:31;15.60;99.90
12303;DHT22;6214;48.012;7.862;2023-05-10T07:11:05;15.70;99.90
12303;DHT22;6214;48.012;7.862;2023-05-10T07:13:37;15.80;99.90
12303;DHT22;6214;48.012;7.862;2023-05-10T07:16:06;15.90;99.90
12303;DHT22;6214;48.012;7.862;2023-05-10T07:18:33;16.00;99.90
12303;DHT22;6214;48.012;7.862;2023-05-10T07:21:00;16.10;99.90
12303;DHT22;6214;48.012;7.862;2023-05-10T07:23:28;16.20;99.90
12303;DHT22;6214;48.012;7.862;2023-05-10T07:25:56;16.30;99.90
12303;DHT22;6214;48.012;7.862;2023-05-10T07:28:24;16.20;99.90
12303;DHT22;6214;48.012;7.862;2023-05-10T07:30:51;16.10;99.90
12303;DHT22;6214;48.012;7.862;2023-05-10T07:33:18;16.10;99.90
12303;DHT22;6214;48.012;7.862;2023-05-10T07:35:46;16.00;99.90
12303;DHT22;6214;48.012;7.862;2023-05-10T07:38:13;16.10;99.90
12303;DHT22;6214;48.012;7.862;2023-05-10T07:40:40;16.30;99.90
12303;DHT22;6214;48.012;7.862;2023-05-10T07:43:07;16.40;99.90
12303;DHT22;6214;48.012;7.862;2023-05-10T07:45:34;16.60;99.90
12303;DHT22;6214;48.012;7.862;2023-05-10T07:48:01;16.70;99.90
12303;DHT22;6214;48.012;7.862;2023-05-10T07:50:29;17.00;99.90
12303;DHT22;6214;48.012;7.862;2023-05-10T07:52:56;17.00;99.90
12303;DHT22;6214;48.012;7.862;2023-05-10T07:55:23;17.30;99.90
12303;DHT22;6214;48.012;7.862;2023-05-10T07:57:50;17.90;99.90
12303;DHT22;6214;48.012;7.862;2023-05-10T08:00:19;18.20;99.90
12303;DHT22;6214;48.012;7.862;2023-05-10T08:02:47;18.10;99.90
12303;DHT22;6214;48.012;7.862;2023-05-10T08:05:15;17.90;99.90
12303;DHT22;6214;48.012;7.862;2023-05-10T08:07:42;17.70;99.90
12303;DHT22;6214;48.012;7.862;2023-05-10T08:10:10;17.40;99.90
12303;DHT22;6214;48.012;7.862;2023-05-10T08:12:40;17.30;99.90
12303;DHT22;6214;48.012;7.862;2023-05-10T08:15:08;17.30;99.90
12303;DHT22;6214;48.012;7.862;2023-05-10T08:17:35;17.30;99.90
12303;DHT22;6214;48.012;7.862;2023-05-10T08:20:02;17.70;99.90
12303;DHT22;6214;48.012;7.862;2023-05-10T08:22:30;17.80;99.90
12303;DHT22;6214;48.012;7.862;2023-05-10T08:24:57;17.90;99.90
12303;DHT22;6214;48.012;7.862;2023-05-10T08:27:24;17.80;99.90
12303;DHT22;6214;48.012;7.862;2023-05-10T08:29:51;17.60;99.90
12303;DHT22;6214;48.012;7.862;2023-05-10T08:32:18;17.80;99.90
12303;DHT22;6214;48.012;7.862;2023-05-10T08:34:45;18.00;99.90
12303;DHT22;6214;48.012;7.862;2023-05-10T08:37:12;18.80;99.90
12303;DHT22;6214;48.012;7.862;2023-05-10T08:39:40;19.90;99.90
12303;DHT22;6214;48.012;7.862;2023-05-10T08:42:08;20.70;99.90
12303;DHT22;6214;48.012;7.862;2023-05-10T08:44:36;21.70;99.90
12303;DHT22;6214;48.012;7.862;2023-05-10T08:47:07;22.60;99.90
12303;DHT22;6214;48.012;7.862;2023-05-10T08:49:37;22.70;99.90
12303;DHT22;6214;48.012;7.862;2023-05-10T08:52:04;22.30;99.90
12303;DHT22;6214;48.012;7.862;2023-05-10T08:54:33;22.30;99.90
12303;DHT22;6214;48.012;7.862;2023-05-10T08:57:01;22.20;99.90
12303;DHT22;6214;48.012;7.862;2023-05-10T08:59:28;22.50;99.90
12303;DHT22;6214;48.012;7.862;2023-05-10T09:01:57;22.30;99.90
12303;DHT22;6214;48.012;7.862;2023-05-10T09:04:25;21.90;99.90
12303;DHT22;6214;48.012;7.862;2023-05-10T09:06:53;21.70;99.90
12303;DHT22;6214;48.012;7.862;2023-05-10T09:09:21;22.50;99.90
12303;DHT22;6214;48.012;7.862;2023-05-10T09:11:49;22.90;99.90
12303;DHT22;6214;48.012;7.862;2023-05-10T09:14:17;22.30;99.90
12303;DHT22;6214;48.012;7.862;2023-05-10T09:16:45;21.80;99.90
12303;DHT22;6214;48.012;7.862;2023-05-10T09:19:13;20.80;99.90
12303;DHT22;6214;48.012;7.862;2023-05-10T09:21:41;19.80;99.90
12303;DHT22;6214;48.012;7.862;2023-05-10T09:24:08;19.00;99.90
12303;DHT22;6214;48.012;7.862;2023-05-10T09:26:39;18.40;99.90
12303;DHT22;6214;48.012;7.862;2023-05-10T09:29:12;18.20;99.90
12303;DHT22;6214;48.012;7.862;2023-05-10T09:31:48;18.50;99.90
12303;DHT22;6214;48.012;7.862;2023-05-10T09:34:29;18.70;99.90
12303;DHT22;6214;48.012;7.862;2023-05-10T09:36:58;19.40;99.90
12303;DHT22;6214;48.012;7.862;2023-05-10T09:39:37;19.80;99.90
12303;DHT22;6214;48.012;7.862;2023-05-10T09:42:06;20.60;99.90
12303;DHT22;6214;48.012;7.862;2023-05-10T09:44:35;21.70;99.90
12303;DHT22;6214;48.012;7.862;2023-05-10T09:47:03;22.80;99.90
12303;DHT22;6214;48.012;7.862;2023-05-10T09:49:30;23.50;99.90
12303;DHT22;6214;48.012;7.862;2023-05-10T09:52:07;24.30;99.90
12303;DHT22;6214;48.012;7.862;2023-05-10T09:54:35;25.20;99.90
12303;DHT22;6214;48.012;7.862;2023-05-10T09:57:02;25.60;99.90
12303;DHT22;6214;48.012;7.862;2023-05-10T09:59:33;26.00;99.90
12303;DHT22;6214;48.012;7.862;2023-05-10T10:02:02;27.00;99.90
12303;DHT22;6214;48.012;7.862;2023-05-10T10:04:29;26.10;99.90
12303;DHT22;6214;48.012;7.862;2023-05-10T10:09:28;24.70;99.90
12303;DHT22;6214;48.012;7.862;2023-05-10T10:11:56;24.50;99.90
12303;DHT22;6214;48.012;7.862;2023-05-10T10:14:23;24.00;99.90
12303;DHT22;6214;48.012;7.862;2023-05-10T10:16:51;23.50;99.90
12303;DHT22;6214;48.012;7.862;2023-05-10T10:19:34;23.00;99.90
12303;DHT22;6214;48.012;7.862;2023-05-10T10:22:03;22.40;99.90
12303;DHT22;6214;48.012;7.862;2023-05-10T10:24:30;22.20;99.90
12303;DHT22;6214;48.012;7.862;2023-05-10T10:27:15;22.00;99.90
12303;DHT22;6214;48.012;7.862;2023-05-10T10:30:02;21.60;99.90
12303;DHT22;6214;48.012;7.862;2023-05-10T10:35:36;21.30;99.90
12303;DHT22;6214;48.012;7.862;2023-05-10T10:38:03;21.50;99.90
12303;DHT22;6214;48.012;7.862;2023-05-10T10:40:32;21.60;99.90
12303;DHT22;6214;48.012;7.862;2023-05-10T10:43:23;21.50;99.90
12303;DHT22;6214;48.012;7.862;2023-05-10T10:46:13;21.30;99.90
12303;DHT22;6214;48.012;7.862;2023-05-10T10:48:47;21.50;99.90
12303;DHT22;6214;48.012;7.862;2023-05-10T10:51:15;21.20;99.90
12303;DHT22;6214;48.012;7.862;2023-05-10T10:53:43;20.90;99.90
12303;DHT22;6214;48.012;7.862;2023-05-10T10:56:13;20.70;99.90
12303;DHT22;6214;48.012;7.862;2023-05-10T10:58:49;20.30;99.90
12303;DHT22;6214;48.012;7.862;2023-05-10T11:01:19;19.80;99.90
12303;DHT22;6214;48.012;7.862;2023-05-10T11:06:33;19.40;99.90
12303;DHT22;6214;48.012;7.862;2023-05-10T11:09:08;19.40;99.90
12303;DHT22;6214;48.012;7.862;2023-05-10T11:11:36;19.90;99.90
12303;DHT22;6214;48.012;7.862;2023-05-10T11:14:20;19.90;99.90
12303;DHT22;6214;48.012;7.862;2023-05-10T11:16:48;19.70;99.90
12303;DHT22;6214;48.012;7.862;2023-05-10T11:19:16;19.60;99.90
12303;DHT22;6214;48.012;7.862;2023-05-10T11:24:21;19.40;99.90
12303;DHT22;6214;48.012;7.862;2023-05-10T11:26:53;19.30;99.90
12303;DHT22;6214;48.012;7.862;2023-05-10T11:29:20;19.30;99.90
12303;DHT22;6214;48.012;7.862;2023-05-10T11:31:49;19.40;99.90
12303;DHT22;6214;48.012;7.862;2023-05-10T11:34:24;19.30;99.90
12303;DHT22;6214;48.012;7.862;2023-05-10T11:36:53;19.20;99.90
12303;DHT22;6214;48.012;7.862;2023-05-10T11:39:27;19.20;99.90
12303;DHT22;6214;48.012;7.862;2023-05-10T11:41:55;19.10;99.90
12303;DHT22;6214;48.012;7.862;2023-05-10T11:44:23;18.90;99.90
12303;DHT22;6214;48.012;7.862;2023-05-10T11:46:50;18.60;99.90
12303;DHT22;6214;48.012;7.862;2023-05-10T11:49:17;18.50;99.90
12303;DHT22;6214;48.012;7.862;2023-05-10T11:51:44;18.60;99.90
12303;DHT22;6214;48.012;7.862;2023-05-10T11:54:13;18.80;99.90
12303;DHT22;6214;48.012;7.862;2023-05-10T11:56:41;18.70;99.90
12303;DHT22;6214;48.012;7.862;2023-05-10T11:59:08;18.80;99.90
12303;DHT22;6214;48.012;7.862;2023-05-10T12:01:36;18.70;99.90
12303;DHT22;6214;48.012;7.862;2023-05-10T12:04:04;18.60;99.90
12303;DHT22;6214;48.012;7.862;2023-05-10T12:06:34;18.50;99.90
12303;DHT22;6214;48.012;7.862;2023-05-10T12:09:09;18.60;99.90
12303;DHT22;6214;48.012;7.862;2023-05-10T12:11:40;18.70;99.90
12303;DHT22;6214;48.012;7.862;2023-05-10T12:14:10;19.00;99.90
12303;DHT22;6214;48.012;7.862;2023-05-10T12:16:38;19.40;99.90
12303;DHT22;6214;48.012;7.862;2023-05-10T12:19:05;19.50;99.90
12303;DHT22;6214;48.012;7.862;2023-05-10T12:21:32;19.30;99.90
12303;DHT22;6214;48.012;7.862;2023-05-10T12:24:02;19.00;99.90
12303;DHT22;6214;48.012;7.862;2023-05-10T12:26:29;18.70;99.90
12303;DHT22;6214;48.012;7.862;2023-05-10T12:29:17;18.50;99.90
12303;DHT22;6214;48.012;7.862;2023-05-10T12:31:58;18.30;99.90
12303;DHT22;6214;48.012;7.862;2023-05-10T12:36:55;18.10;99.90
12303;DHT22;6214;48.012;7.862;2023-05-10T12:39:23;18.10;99.90
12303;DHT22;6214;48.012;7.862;2023-05-10T12:41:51;18.10;99.90
12303;DHT22;6214;48.012;7.862;2023-05-10T12:44:18;17.90;99.90
12303;DHT22;6214;48.012;7.862;2023-05-10T12:46:46;17.60;99.90
12303;DHT22;6214;48.012;7.862;2023-05-10T12:49:13;17.40;99.90
12303;DHT22;6214;48.012;7.862;2023-05-10T12:51:40;17.10;99.90
12303;DHT22;6214;48.012;7.862;2023-05-10T12:54:07;16.80;99.90
12303;DHT22;6214;48.012;7.862;2023-05-10T12:56:34;16.70;99.90
12303;DHT22;6214;48.012;7.862;2023-05-10T12:59:01;16.70;99.90
12303;DHT22;6214;48.012;7.862;2023-05-10T13:01:29;16.70;99.90
12303;DHT22;6214;48.012;7.862;2023-05-10T13:03:56;16.90;99.90
12303;DHT22;6214;48.012;7.862;2023-05-10T13:06:23;17.00;99.90
12303;DHT22;6214;48.012;7.862;2023-05-10T13:08:50;17.20;99.90
12303;DHT22;6214;48.012;7.862;2023-05-10T13:11:18;17.30;99.90
12303;DHT22;6214;48.012;7.862;2023-05-10T13:13:46;17.40;99.90
12303;DHT22;6214;48.012;7.862;2023-05-10T13:16:13;17.50;99.90
12303;DHT22;6214;48.012;7.862;2023-05-10T13:18:41;17.60;99.90
12303;DHT22;6214;48.012;7.862;2023-05-10T13:21:08;17.70;99.90
12303;DHT22;6214;48.012;7.862;2023-05-10T13:23:35;17.80;99.90
12303;DHT22;6214;48.012;7.862;2023-05-10T13:26:02;18.00;99.90
12303;DHT22;6214;48.012;7.862;2023-05-10T13:28:29;18.00;99.90
12303;DHT22;6214;48.012;7.862;2023-05-10T13:30:57;18.00;99.90
12303;DHT22;6214;48.012;7.862;2023-05-10T13:33:24;18.00;99.90
12303;DHT22;6214;48.012;7.862;2023-05-10T13:35:51;18.00;99.90
12303;DHT22;6214;48.012;7.862;2023-05-10T13:38:21;18.20;99.90
12303;DHT22;6214;48.012;7.862;2023-05-10T13:40:48;18.20;99.90
12303;DHT22;6214;48.012;7.862;2023-05-10T13:43:19;18.20;99.90
12303;DHT22;6214;48.012;7.862;2023-05-10T13:45:46;18.00;99.90
12303;DHT22;6214;48.012;7.862;2023-05-10T13:48:14;18.00;99.90
12303;DHT22;6214;48.012;7.862;2023-05-10T13:50:41;18.20;99.90
12303;DHT22;6214;48.012;7.862;2023-05-10T13:53:08;18.30;99.90
12303;DHT22;6214;48.012;7.862;2023-05-10T13:55:35;18.30;99.90
12303;DHT22;6214;48.012;7.862;2023-05-10T13:58:03;18.50;99.90
12303;DHT22;6214;48.012;7.862;2023-05-10T14:00:30;18.60;99.90
12303;DHT22;6214;48.012;7.862;2023-05-10T14:02:57;18.70;99.90
12303;DHT22;6214;48.012;7.862;2023-05-10T14:05:24;18.80;99.90
12303;DHT22;6214;48.012;7.862;2023-05-10T14:07:52;19.10;99.90
12303;DHT22;6214;48.012;7.862;2023-05-10T14:10:20;19.30;99.90
12303;DHT22;6214;48.012;7.862;2023-05-10T14:12:47;19.50;99.90
12303;DHT22;6214;48.012;7.862;2023-05-10T14:15:14;19.50;99.90
12303;DHT22;6214;48.012;7.862;2023-05-10T14:17:42;19.40;99.90
12303;DHT22;6214;48.012;7.862;2023-05-10T14:20:09;19.40;99.90
12303;DHT22;6214;48.012;7.862;2023-05-10T14:22:37;19.50;99.90
12303;DHT22;6214;48.012;7.862;2023-05-10T14:25:04;19.70;99.90
12303;DHT22;6214;48.012;7.862;2023-05-10T14:27:32;19.70;99.90
12303;DHT22;6214;48.012;7.862;2023-05-10T14:29:59;19.70;99.90
12303;DHT22;6214;48.012;7.862;2023-05-10T14:32:26;19.80;99.90
12303;DHT22;6214;48.012;7.862;2023-05-10T14:34:54;19.90;99.90
12303;DHT22;6214;48.012;7.862;2023-05-10T14:37:22;19.80;99.90
12303;DHT22;6214;48.012;7.862;2023-05-10T14:39:49;19.60;99.90
12303;DHT22;6214;48.012;7.862;2023-05-10T14:42:16;19.30;99.90
12303;DHT22;6214;48.012;7.862;2023-05-10T14:44:43;19.00;99.90
12303;DHT22;6214;48.012;7.862;2023-05-10T14:47:10;18.80;99.90
12303;DHT22;6214;48.012;7.862;2023-05-10T14:49:38;18.90;99.90
12303;DHT22;6214;48.012;7.862;2023-05-10T14:52:05;18.90;99.90
12303;DHT22;6214;48.012;7.862;2023-05-10T14:54:32;18.90;99.90
12303;DHT22;6214;48.012;7.862;2023-05-10T14:57:00;19.10;99.90
12303;DHT22;6214;48.012;7.862;2023-05-10T14:59:27;19.10;99.90
12303;DHT22;6214;48.012;7.862;2023-05-10T15:01:54;19.10;99.90
12303;DHT22;6214;48.012;7.862;2023-05-10T15:04:22;19.10;99.90
12303;DHT22;6214;48.012;7.862;2023-05-10T15:06:52;19.20;99.90
12303;DHT22;6214;48.012;7.862;2023-05-10T15:09:26;19.40;99.90
12303;DHT22;6214;48.012;7.862;2023-05-10T15:11:55;19.70;99.90
12303;DHT22;6214;48.012;7.862;2023-05-10T15:14:22;19.80;99.90
12303;DHT22;6214;48.012;7.862;2023-05-10T15:16:49;19.80;99.90
12303;DHT22;6214;48.012;7.862;2023-05-10T15:19:17;19.70;99.90
12303;DHT22;6214;48.012;7.862;2023-05-10T15:21:44;19.60;99.90
12303;DHT22;6214;48.012;7.862;2023-05-10T15:24:11;19.40;99.90
12303;DHT22;6214;48.012;7.862;2023-05-10T15:26:38;19.30;99.90
12303;DHT22;6214;48.012;7.862;2023-05-10T15:29:06;19.20;99.90
12303;DHT22;6214;48.012;7.862;2023-05-10T15:31:33;19.10;99.90
12303;DHT22;6214;48.012;7.862;2023-05-10T15:34:03;19.20;99.90
12303;DHT22;6214;48.012;7.862;2023-05-10T15:36:31;19.20;99.90
12303;DHT22;6214;48.012;7.862;2023-05-10T15:38:58;19.30;99.90
12303;DHT22;6214;48.012;7.862;2023-05-10T15:41:26;19.50;99.90
12303;DHT22;6214;48.012;7.862;2023-05-10T15:43:53;19.70;99.90
12303;DHT22;6214;48.012;7.862;2023-05-10T15:46:21;20.00;99.90
12303;DHT22;6214;48.012;7.862;2023-05-10T15:48:48;19.80;99.90
12303;DHT22;6214;48.012;7.862;2023-05-10T15:51:15;19.80;99.90
12303;DHT22;6214;48.012;7.862;2023-05-10T15:53:42;19.80;99.90
12303;DHT22;6214;48.012;7.862;2023-05-10T15:56:30;19.60;99.90
12303;DHT22;6214;48.012;7.862;2023-05-10T15:58:57;19.50;99.90
12303;DHT22;6214;48.012;7.862;2023-05-10T16:01:24;19.50;99.90
12303;DHT22;6214;48.012;7.862;2023-05-10T16:03:51;19.50;99.90
12303;DHT22;6214;48.012;7.862;2023-05-10T16:06:18;19.30;99.90
12303;DHT22;6214;48.012;7.862;2023-05-10T16:08:45;19.20;99.90
12303;DHT22;6214;48.012;7.862;2023-05-10T16:11:13;19.10;99.90
12303;DHT22;6214;48.012;7.862;2023-05-10T16:13:40;19.20;99.90
12303;DHT22;6214;48.012;7.862;2023-05-10T16:16:07;19.00;99.90
12303;DHT22;6214;48.012;7.862;2023-05-10T16:18:35;19.00;99.90
12303;DHT22;6214;48.012;7.862;2023-05-10T16:21:02;18.70;99.90